Time;durP1;ratioP1;P1;durP2;ratioP2;P2;SDS_P1;SDS_P2;PMS_P1;PMS_P2;Temp;Humidity;BMP_temperature;BMP_pressure;BME280_temperature;BME280_humidity;BME280_pressure;Samples;Min_cycle;Max_cycle;Signal;HPM_P1;HPM_P2
2022/10/12 00:01:29;;;;;;;23.40;19.85;;;11.30;99.90;;;;;;5009021;28;20264;-75
2022/10/12 00:03:54;;;;;;;20.35;17.67;;;11.40;99.90;;;;;;5015712;28;20269;-75
2022/10/12 00:06:22;;;;;;;20.95;18.70;;;11.40;99.90;;;;;;5014950;28;20211;-76
2022/10/12 00:09:19;;;;;;;23.25;18.75;;;11.50;99.90;;;;;;5012931;28;20181;-76
2022/10/12 00:11:44;;;;;;;18.73;16.77;;;11.50;99.90;;;;;;5009587;28;20190;-79
2022/10/12 00:14:09;;;;;;;20.52;17.98;;;11.50;99.90;;;;;;5011685;28;20713;-76
2022/10/12 00:16:36;;;;;;;21.42;17.75;;;11.60;99.90;;;;;;5012174;28;20193;-76
2022/10/12 00:19:01;;;;;;;21.38;17.48;;;11.60;99.90;;;;;;5012672;28;20174;-77
2022/10/12 00:21:28;;;;;;;23.10;18.15;;;11.60;99.90;;;;;;5009317;28;20234;-76
2022/10/12 00:24:00;;;;;;;19.38;17.33;;;11.50;99.90;;;;;;5009094;28;20746;-77
2022/10/12 00:26:27;;;;;;;19.88;17.73;;;11.50;99.90;;;;;;5011342;28;20763;-77
2022/10/12 00:28:56;;;;;;;23.60;18.65;;;11.50;99.90;;;;;;5007042;28;20193;-78
2022/10/12 00:31:22;;;;;;;19.73;17.73;;;11.50;99.90;;;;;;5011831;28;20264;-76
2022/10/12 00:33:48;;;;;;;18.20;16.35;;;11.50;99.90;;;;;;5009879;28;20205;-76
2022/10/12 00:36:19;;;;;;;24.65;18.90;;;11.50;99.90;;;;;;5013961;28;20200;-76
2022/10/12 00:38:45;;;;;;;21.80;17.40;;;11.50;99.90;;;;;;5012131;28;20239;-75
2022/10/12 00:41:12;;;;;;;21.73;19.38;;;11.50;99.90;;;;;;5011656;28;20219;-76
2022/10/12 00:43:41;;;;;;;20.38;16.80;;;11.40;99.90;;;;;;5008825;28;20209;-75
2022/10/12 00:46:24;;;;;;;20.98;18.83;;;11.40;99.90;;;;;;5013297;28;20215;-75
2022/10/12 00:48:57;;;;;;;21.75;18.52;;;11.40;99.90;;;;;;5012028;28;20181;-75
2022/10/12 00:51:23;;;;;;;21.40;17.13;;;11.40;99.90;;;;;;5012587;28;20185;-75
2022/10/12 00:54:02;;;;;;;19.90;17.25;;;11.40;99.90;;;;;;5010378;28;20562;-75
2022/10/12 00:56:31;;;;;;;22.70;18.13;;;11.40;99.90;;;;;;5011252;28;20690;-76
2022/10/12 00:59:01;;;;;;;18.83;16.83;;;11.40;99.90;;;;;;5017541;28;20718;-75
2022/10/12 01:01:28;;;;;;;24.05;17.52;;;11.30;99.90;;;;;;5014401;28;20182;-76
2022/10/12 01:03:53;;;;;;;19.23;16.88;;;11.30;99.90;;;;;;5014428;28;20209;-75
2022/10/12 01:06:19;;;;;;;21.67;18.65;;;11.40;99.90;;;;;;5012855;28;20208;-75
2022/10/12 01:08:45;;;;;;;19.40;17.05;;;11.40;99.90;;;;;;5012435;28;20181;-75
2022/10/12 01:11:11;;;;;;;17.98;16.17;;;11.40;99.90;;;;;;5016584;28;20250;-75
2022/10/12 01:13:37;;;;;;;19.15;17.13;;;11.40;99.90;;;;;;5012920;28;20201;-76
2022/10/12 01:16:21;;;;;;;21.05;18.67;;;11.50;99.90;;;;;;5020382;28;20260;-75
2022/10/12 01:18:57;;;;;;;21.58;18.42;;;11.50;99.90;;;;;;5018816;28;20216;-75
2022/10/12 01:21:24;;;;;;;20.67;18.00;;;11.40;99.90;;;;;;5010985;28;20185;-76
2022/10/12 01:24:21;;;;;;;19.17;17.17;;;11.50;99.90;;;;;;5009391;28;20295;-75
2022/10/12 01:27:08;;;;;;;19.35;17.38;;;11.40;99.90;;;;;;5010819;28;20351;-75
2022/10/12 01:30:17;;;;;;;18.73;16.33;;;11.50;99.90;;;;;;5011998;28;20174;-76
2022/10/12 01:33:07;;;;;;;21.90;17.45;;;11.60;99.90;;;;;;5009879;28;20169;-76
2022/10/12 01:35:41;;;;;;;20.83;17.35;;;11.70;99.90;;;;;;5029340;28;20185;-77
2022/10/12 01:38:30;;;;;;;19.33;17.05;;;11.80;99.90;;;;;;5015411;28;20646;-77
2022/10/12 01:41:10;;;;;;;19.77;17.48;;;11.80;99.90;;;;;;5016570;28;20236;-76
2022/10/12 01:43:42;;;;;;;21.23;16.92;;;11.80;99.90;;;;;;5013568;28;20220;-75
2022/10/12 01:46:14;;;;;;;21.92;16.75;;;11.80;99.90;;;;;;5018338;28;20216;-75
2022/10/12 01:48:44;;;;;;;21.00;17.35;;;11.80;99.90;;;;;;5013618;28;20213;-77
2022/10/12 01:51:13;;;;;;;21.15;18.13;;;11.70;99.90;;;;;;5014394;28;20181;-77
2022/10/12 01:54:28;;;;;;;19.73;17.35;;;11.80;99.90;;;;;;5015335;28;20203;-77
2022/10/12 01:57:06;;;;;;;20.52;16.92;;;11.80;99.90;;;;;;5012755;28;20215;-77
2022/10/12 02:00:01;;;;;;;22.02;17.98;;;11.80;99.90;;;;;;5011118;28;20264;-77
2022/10/12 02:02:38;;;;;;;26.23;18.48;;;11.80;99.90;;;;;;5014421;28;20192;-76
2022/10/12 02:05:27;;;;;;;20.50;17.55;;;11.80;99.90;;;;;;5016679;28;20208;-76
2022/10/12 02:08:15;;;;;;;19.65;17.65;;;11.80;99.90;;;;;;5019709;28;20181;-76
2022/10/12 02:11:11;;;;;;;22.67;18.35;;;11.80;99.90;;;;;;5012961;28;20181;-76
2022/10/12 02:13:45;;;;;;;23.35;18.48;;;11.80;99.90;;;;;;5011156;28;20572;-76
2022/10/12 02:16:16;;;;;;;20.95;18.25;;;11.80;99.90;;;;;;5018859;28;20181;-76
2022/10/12 02:18:45;;;;;;;21.23;17.13;;;11.70;99.90;;;;;;5015415;28;20200;-76
2022/10/12 02:21:15;;;;;;;22.48;18.40;;;11.70;99.90;;;;;;5016839;28;20546;-75
2022/10/12 02:23:42;;;;;;;18.98;16.98;;;11.60;99.90;;;;;;5007566;28;20218;-76
2022/10/12 02:26:10;;;;;;;22.45;18.58;;;11.60;99.90;;;;;;5016331;28;20203;-76
2022/10/12 02:28:37;;;;;;;19.58;16.92;;;11.70;99.90;;;;;;5011889;28;20193;-76
2022/10/12 02:31:35;;;;;;;23.23;18.45;;;11.60;99.90;;;;;;5014870;28;20181;-77
2022/10/12 02:34:15;;;;;;;21.58;17.55;;;11.60;99.90;;;;;;5013085;28;20645;-75
2022/10/12 02:37:07;;;;;;;21.90;17.33;;;11.60;99.90;;;;;;5015957;28;20181;-76
2022/10/12 02:39:49;;;;;;;20.80;17.67;;;11.60;99.90;;;;;;5011478;28;20620;-75
2022/10/12 02:42:21;;;;;;;19.08;16.40;;;11.70;99.90;;;;;;5013596;28;20185;-77
2022/10/12 02:44:48;;;;;;;19.67;16.92;;;11.60;99.90;;;;;;5015480;28;20295;-77
2022/10/12 02:47:15;;;;;;;19.52;16.27;;;11.60;99.90;;;;;;5014959;28;20706;-76
2022/10/12 02:49:42;;;;;;;20.02;15.98;;;11.60;99.90;;;;;;5011989;28;20255;-76
2022/10/12 02:52:09;;;;;;;21.42;17.13;;;11.60;99.90;;;;;;5018558;28;20177;-76
2022/10/12 02:54:35;;;;;;;19.65;15.60;;;11.60;99.90;;;;;;5013486;28;20209;-75
2022/10/12 02:57:01;;;;;;;19.08;15.95;;;11.70;99.90;;;;;;5017052;28;20228;-75
2022/10/12 02:59:29;;;;;;;18.15;15.48;;;11.80;99.90;;;;;;5015657;28;20259;-76
2022/10/12 03:01:56;;;;;;;19.02;17.02;;;11.70;99.90;;;;;;5016859;28;20688;-76
2022/10/12 03:04:21;;;;;;;17.25;15.40;;;11.70;99.90;;;;;;5014525;28;20211;-76
2022/10/12 03:06:47;;;;;;;22.60;17.77;;;11.70;99.90;;;;;;5016053;28;20205;-76
2022/10/12 03:09:13;;;;;;;17.55;15.25;;;11.70;99.90;;;;;;5004222;28;20181;-76
2022/10/12 03:11:42;;;;;;;18.17;15.77;;;11.70;99.90;;;;;;5012042;28;20464;-77
2022/10/12 03:14:19;;;;;;;18.17;16.13;;;11.70;99.90;;;;;;5012017;28;20201;-75
2022/10/12 03:16:47;;;;;;;19.80;16.48;;;11.80;99.90;;;;;;5016960;28;20224;-75
2022/10/12 03:19:13;;;;;;;18.55;14.98;;;11.80;99.90;;;;;;5012449;28;20275;-75
2022/10/12 03:21:39;;;;;;;18.70;15.63;;;11.80;99.90;;;;;;5009816;28;20185;-75
2022/10/12 03:24:05;;;;;;;17.83;16.08;;;11.80;99.90;;;;;;5013617;28;20223;-75
2022/10/12 03:26:40;;;;;;;18.60;16.25;;;11.70;99.90;;;;;;5006797;28;20205;-74
2022/10/12 03:29:05;;;;;;;17.95;14.38;;;11.70;99.90;;;;;;5014201;28;20181;-74
2022/10/12 03:31:31;;;;;;;22.63;16.85;;;11.70;99.90;;;;;;5009017;28;20181;-75
2022/10/12 03:33:57;;;;;;;17.75;15.70;;;11.80;99.90;;;;;;5009731;28;20196;-75
2022/10/12 03:36:22;;;;;;;17.33;14.85;;;11.70;99.90;;;;;;5011149;28;20182;-75
2022/10/12 03:38:51;;;;;;;18.55;16.20;;;11.70;99.90;;;;;;5009975;28;20189;-75
2022/10/12 03:41:17;;;;;;;16.10;14.27;;;11.80;99.90;;;;;;5010126;28;20185;-76
2022/10/12 03:43:42;;;;;;;17.50;15.35;;;11.80;99.90;;;;;;5004339;28;20562;-76
2022/10/12 03:46:08;;;;;;;17.35;15.50;;;11.80;99.90;;;;;;5006845;28;20197;-75
2022/10/12 03:48:34;;;;;;;18.00;16.10;;;11.80;99.90;;;;;;5007235;28;20192;-77
2022/10/12 03:50:59;;;;;;;18.33;15.38;;;11.70;99.90;;;;;;5008903;28;20200;-76
2022/10/12 03:53:25;;;;;;;18.67;14.98;;;11.70;99.90;;;;;;5007174;28;20212;-77
2022/10/12 03:55:51;;;;;;;18.05;15.70;;;11.80;99.90;;;;;;5007692;28;20243;-77
2022/10/12 03:58:27;;;;;;;17.20;15.40;;;11.80;99.90;;;;;;5007139;28;20189;-77
2022/10/12 04:01:00;;;;;;;20.35;16.63;;;11.70;99.90;;;;;;5006941;28;20185;-77
2022/10/12 04:03:44;;;;;;;18.08;15.63;;;11.70;99.90;;;;;;5009179;28;20646;-77
2022/10/12 04:06:10;;;;;;;20.25;15.70;;;11.60;99.90;;;;;;5010103;28;20247;-77
2022/10/12 04:08:35;;;;;;;19.60;15.98;;;11.60;99.90;;;;;;5009451;28;20173;-77
2022/10/12 04:11:01;;;;;;;19.33;15.65;;;11.50;99.90;;;;;;5010302;28;20179;-77
2022/10/12 04:13:27;;;;;;;22.23;16.35;;;11.50;99.90;;;;;;5009650;28;20204;-76
2022/10/12 04:15:53;;;;;;;17.23;15.13;;;11.30;99.90;;;;;;5008846;28;20484;-75
2022/10/12 04:18:19;;;;;;;19.55;17.13;;;11.20;99.90;;;;;;5009487;28;20552;-75
2022/10/12 04:20:47;;;;;;;19.48;15.98;;;11.00;99.90;;;;;;5007874;28;20193;-75
2022/10/12 04:23:14;;;;;;;19.58;15.60;;;11.10;99.90;;;;;;5009140;28;20200;-76
2022/10/12 04:25:40;;;;;;;21.65;15.70;;;11.10;99.90;;;;;;5013804;28;20201;-75
2022/10/12 04:28:05;;;;;;;17.70;15.80;;;11.10;99.90;;;;;;5012523;28;20272;-75
2022/10/12 04:30:32;;;;;;;18.67;15.75;;;11.00;99.90;;;;;;5011550;28;20260;-74
2022/10/12 04:33:00;;;;;;;18.58;16.05;;;10.90;99.90;;;;;;5018986;28;20270;-74
2022/10/12 04:35:26;;;;;;;22.13;15.50;;;10.70;99.90;;;;;;5015419;28;20193;-75
2022/10/12 04:37:52;;;;;;;19.48;16.08;;;10.70;99.90;;;;;;5010538;28;20181;-75
2022/10/12 04:40:18;;;;;;;18.30;14.85;;;10.80;99.90;;;;;;5014806;28;20185;-76
2022/10/12 04:42:43;;;;;;;17.30;15.43;;;10.90;99.90;;;;;;5011402;28;20568;-75
2022/10/12 04:45:09;;;;;;;16.95;14.65;;;10.90;99.90;;;;;;5013838;28;20216;-76
2022/10/12 04:47:35;;;;;;;16.98;14.80;;;10.80;99.90;;;;;;5013618;28;20227;-77
2022/10/12 04:50:00;;;;;;;21.52;15.85;;;10.80;99.90;;;;;;5014602;28;20168;-77
2022/10/12 04:52:26;;;;;;;17.67;15.25;;;10.90;99.90;;;;;;5010622;28;20209;-77
2022/10/12 04:54:52;;;;;;;22.67;15.30;;;11.00;99.90;;;;;;5014161;28;20232;-77
2022/10/12 04:57:17;;;;;;;18.52;15.75;;;11.00;99.90;;;;;;5023087;28;20189;-76
2022/10/12 04:59:43;;;;;;;18.65;16.27;;;10.90;99.90;;;;;;5022263;28;20184;-76
2022/10/12 05:02:08;;;;;;;21.65;14.98;;;10.80;99.90;;;;;;5012828;28;20243;-78
2022/10/12 05:04:34;;;;;;;17.98;15.63;;;10.80;99.90;;;;;;5013768;28;20271;-76
2022/10/12 05:07:00;;;;;;;17.30;15.23;;;10.80;99.90;;;;;;5014963;28;20295;-77
2022/10/12 05:09:26;;;;;;;22.80;16.02;;;10.80;99.90;;;;;;5009510;28;20674;-75
2022/10/12 05:11:51;;;;;;;18.17;15.95;;;10.70;99.90;;;;;;5008612;28;20245;-77
2022/10/12 05:14:17;;;;;;;18.98;16.58;;;10.70;99.90;;;;;;5014552;28;20212;-77
2022/10/12 05:16:42;;;;;;;18.65;14.80;;;10.60;99.90;;;;;;5012564;28;20280;-76
2022/10/12 05:19:08;;;;;;;20.55;16.10;;;10.70;99.90;;;;;;5016630;28;20189;-78
2022/10/12 05:21:34;;;;;;;20.30;16.38;;;10.70;99.90;;;;;;5014565;28;20197;-77
2022/10/12 05:23:59;;;;;;;19.80;15.43;;;10.70;99.90;;;;;;5012527;28;20197;-77
2022/10/12 05:26:25;;;;;;;17.02;14.90;;;10.70;99.90;;;;;;5014936;28;20590;-77
2022/10/12 05:28:50;;;;;;;19.65;15.15;;;10.60;99.90;;;;;;5017214;28;20204;-76
2022/10/12 05:31:16;;;;;;;21.10;15.63;;;10.70;99.90;;;;;;5015095;28;20173;-77
2022/10/12 05:33:42;;;;;;;16.52;13.75;;;10.80;99.90;;;;;;5016905;28;20619;-77
2022/10/12 05:36:08;;;;;;;16.98;14.70;;;10.70;99.90;;;;;;5013722;28;20185;-77
2022/10/12 05:38:33;;;;;;;20.98;15.45;;;10.70;99.90;;;;;;5004101;28;20730;-76
2022/10/12 05:40:59;;;;;;;20.33;16.80;;;10.60;99.90;;;;;;5016460;28;20177;-77
2022/10/12 05:43:24;;;;;;;19.63;16.13;;;10.70;99.90;;;;;;5015141;28;20583;-72
2022/10/12 05:45:50;;;;;;;17.23;15.05;;;10.80;99.90;;;;;;5009418;28;20205;-73
2022/10/12 05:48:16;;;;;;;20.05;15.55;;;10.80;99.90;;;;;;5010438;28;20213;-74
2022/10/12 05:50:45;;;;;;;20.65;14.90;;;10.90;99.90;;;;;;5014506;28;20664;-74
2022/10/12 05:53:10;;;;;;;20.67;15.75;;;11.00;99.90;;;;;;5016807;28;20570;-73
2022/10/12 05:55:36;;;;;;;21.92;15.25;;;11.00;99.90;;;;;;5015050;28;20185;-74
2022/10/12 05:58:01;;;;;;;17.45;15.13;;;10.90;99.90;;;;;;5012082;28;20216;-74
2022/10/12 06:00:27;;;;;;;24.20;15.68;;;11.00;99.90;;;;;;5009852;28;20205;-73
2022/10/12 06:02:54;;;;;;;19.35;15.80;;;11.00;99.90;;;;;;5015658;28;20217;-74
2022/10/12 06:05:20;;;;;;;16.63;13.95;;;11.00;99.90;;;;;;5011284;28;20367;-73
2022/10/12 06:07:49;;;;;;;17.65;14.10;;;11.10;99.90;;;;;;5025383;28;20173;-73
2022/10/12 06:10:15;;;;;;;19.25;13.30;;;11.10;99.90;;;;;;5012255;28;20188;-73
2022/10/12 06:12:40;;;;;;;19.38;13.90;;;11.20;99.90;;;;;;5016643;28;20185;-75
2022/10/12 06:15:09;;;;;;;15.07;12.88;;;11.30;99.90;;;;;;5016338;28;20197;-77
2022/10/12 06:17:35;;;;;;;19.02;14.15;;;11.30;99.90;;;;;;5012309;28;20193;-77
2022/10/12 06:20:01;;;;;;;15.93;13.50;;;11.40;99.90;;;;;;5013203;28;20264;-76
2022/10/12 06:22:26;;;;;;;16.30;13.25;;;11.40;99.90;;;;;;5012656;28;20185;-75
2022/10/12 06:24:52;;;;;;;15.15;13.07;;;11.60;99.90;;;;;;5014273;28;20208;-75
2022/10/12 06:27:24;;;;;;;17.25;13.50;;;11.70;99.90;;;;;;5015133;28;20556;-76
2022/10/12 06:29:50;;;;;;;16.33;12.38;;;11.70;99.90;;;;;;5011063;28;20192;-75
2022/10/12 06:32:16;;;;;;;14.60;12.25;;;11.80;99.90;;;;;;5003349;28;20528;-76
2022/10/12 06:34:41;;;;;;;16.65;13.18;;;12.00;99.90;;;;;;5009954;28;20205;-76
2022/10/12 06:37:09;;;;;;;14.35;12.15;;;12.00;99.90;;;;;;5012403;28;20272;-77
2022/10/12 06:39:35;;;;;;;16.30;12.90;;;12.10;99.90;;;;;;5008007;28;20181;-77
2022/10/12 06:42:00;;;;;;;15.45;12.30;;;12.20;99.90;;;;;;5013807;28;20587;-77
2022/10/12 06:44:26;;;;;;;15.60;12.52;;;12.20;99.90;;;;;;5013705;28;20312;-77
2022/10/12 06:46:52;;;;;;;15.93;12.02;;;12.30;99.90;;;;;;5012318;28;20624;-76
2022/10/12 06:49:17;;;;;;;13.32;11.93;;;12.40;99.90;;;;;;5011248;28;20181;-75
2022/10/12 06:51:43;;;;;;;13.93;11.23;;;12.50;99.90;;;;;;5013569;28;20185;-76
2022/10/12 06:54:09;;;;;;;17.15;11.57;;;12.60;99.90;;;;;;5011270;28;20224;-75
2022/10/12 06:56:36;;;;;;;16.80;12.30;;;12.90;99.90;;;;;;5011237;28;20205;-75
2022/10/12 06:59:02;;;;;;;15.30;12.38;;;13.00;99.90;;;;;;5014793;28;20207;-75
2022/10/12 07:01:28;;;;;;;16.02;11.85;;;13.10;99.90;;;;;;5012614;28;20185;-74
2022/10/12 07:03:54;;;;;;;14.15;12.63;;;13.10;99.90;;;;;;5019168;28;20210;-74
2022/10/12 07:06:19;;;;;;;14.02;10.98;;;13.20;99.90;;;;;;5009993;28;20341;-76
2022/10/12 07:08:45;;;;;;;14.02;10.73;;;13.30;99.90;;;;;;5012117;28;20201;-75
2022/10/12 07:11:12;;;;;;;13.80;11.85;;;13.30;99.90;;;;;;5012769;28;20185;-76
2022/10/12 07:13:38;;;;;;;15.63;12.10;;;13.40;99.90;;;;;;5009279;28;20208;-75
2022/10/12 07:16:04;;;;;;;14.63;11.80;;;13.50;99.90;;;;;;5014143;28;20272;-75
2022/10/12 07:18:30;;;;;;;14.18;11.30;;;13.60;99.90;;;;;;5008545;28;20185;-76
2022/10/12 07:20:58;;;;;;;13.18;11.30;;;13.70;99.90;;;;;;5010636;28;20231;-78
2022/10/12 07:23:24;;;;;;;12.32;10.82;;;13.90;99.90;;;;;;5012766;28;20220;-78
2022/10/12 07:25:51;;;;;;;14.02;10.32;;;14.10;99.90;;;;;;5014976;28;20605;-78
2022/10/12 07:28:18;;;;;;;13.13;11.13;;;14.30;99.90;;;;;;5010492;28;20181;-78
2022/10/12 07:30:43;;;;;;;14.95;11.10;;;14.50;99.90;;;;;;5019294;28;20192;-78
2022/10/12 07:33:09;;;;;;;12.68;10.70;;;14.70;99.90;;;;;;5019412;28;20192;-76
2022/10/12 07:35:35;;;;;;;13.05;11.65;;;14.80;99.90;;;;;;5011246;28;20220;-77
2022/10/12 07:38:01;;;;;;;16.75;10.57;;;14.90;99.90;;;;;;5008245;28;20185;-77
2022/10/12 07:40:27;;;;;;;13.43;10.75;;;14.90;99.90;;;;;;5009004;28;20185;-77
2022/10/12 07:42:53;;;;;;;13.77;11.27;;;14.90;99.90;;;;;;5010812;28;20300;-78
2022/10/12 07:45:19;;;;;;;10.85;9.48;;;15.00;99.90;;;;;;5010370;28;20197;-77
2022/10/12 07:47:45;;;;;;;13.43;9.77;;;15.20;99.90;;;;;;5011306;28;20311;-78
2022/10/12 07:50:11;;;;;;;12.05;10.57;;;15.40;99.90;;;;;;5012735;28;20268;-78
2022/10/12 07:52:37;;;;;;;10.77;9.68;;;15.40;99.90;;;;;;5009691;28;20280;-78
2022/10/12 07:55:03;;;;;;;15.10;10.45;;;15.40;99.90;;;;;;5009900;28;20347;-77
2022/10/12 07:57:28;;;;;;;14.32;10.52;;;15.60;99.90;;;;;;5008342;28;20208;-77
2022/10/12 07:59:54;;;;;;;13.38;9.90;;;15.70;99.90;;;;;;5011625;28;20188;-77
2022/10/12 08:02:20;;;;;;;14.15;10.20;;;15.80;99.90;;;;;;5011119;28;20227;-77
2022/10/12 08:04:46;;;;;;;11.73;10.57;;;15.90;99.90;;;;;;5009411;28;20193;-77
2022/10/12 08:07:11;;;;;;;10.57;9.20;;;16.10;99.90;;;;;;5009598;28;20750;-77
2022/10/12 08:09:37;;;;;;;12.57;10.07;;;16.00;99.90;;;;;;5010538;28;20269;-78
2022/10/12 08:12:03;;;;;;;14.85;10.07;;;16.10;99.90;;;;;;5015971;28;20616;-78
2022/10/12 08:14:28;;;;;;;12.43;10.00;;;16.10;99.90;;;;;;5008562;28;20208;-78
2022/10/12 08:16:54;;;;;;;11.90;10.23;;;16.10;99.90;;;;;;5011163;28;20177;-78
2022/10/12 08:19:20;;;;;;;13.20;9.80;;;16.20;99.90;;;;;;5009766;28;20185;-78
2022/10/12 08:21:45;;;;;;;11.80;9.73;;;16.40;99.90;;;;;;5008587;28;20197;-78
2022/10/12 08:24:11;;;;;;;16.40;10.15;;;16.60;99.90;;;;;;5013160;28;20368;-78
2022/10/12 08:26:38;;;;;;;14.10;9.80;;;16.80;99.90;;;;;;5019795;28;20209;-78
2022/10/12 08:29:05;;;;;;;15.30;9.25;;;16.70;99.90;;;;;;5018693;28;20177;-79
2022/10/12 08:31:31;;;;;;;12.48;9.73;;;16.70;99.90;;;;;;5017640;28;20204;-78
2022/10/12 08:33:57;;;;;;;13.88;9.88;;;16.60;99.90;;;;;;5023919;28;20204;-77
2022/10/12 08:36:23;;;;;;;13.98;10.52;;;16.50;99.90;;;;;;5019112;28;20646;-76
2022/10/12 08:38:54;;;;;;;13.70;9.35;;;16.40;99.90;;;;;;5009090;28;20189;-76
2022/10/12 08:41:55;;;;;;;10.35;9.25;;;16.40;99.90;;;;;;5010735;28;20178;-76
2022/10/12 08:44:29;;;;;;;10.50;9.43;;;16.40;99.90;;;;;;5005362;28;20208;-75
2022/10/12 08:47:23;;;;;;;17.33;9.80;;;16.30;99.90;;;;;;5018741;28;20652;-76
2022/10/12 08:49:49;;;;;;;12.27;9.32;;;16.30;99.90;;;;;;5014734;28;20220;-77
2022/10/12 08:52:31;;;;;;;11.05;9.23;;;16.50;99.90;;;;;;5009451;28;20185;-77
2022/10/12 08:55:14;;;;;;;11.32;9.07;;;16.70;99.90;;;;;;5008461;28;20199;-76
2022/10/12 08:57:40;;;;;;;13.55;9.73;;;16.90;99.90;;;;;;5010362;28;20615;-77
2022/10/12 09:00:17;;;;;;;14.25;10.00;;;16.90;99.90;;;;;;5011072;28;20180;-76
2022/10/12 09:02:43;;;;;;;13.25;9.43;;;17.10;99.90;;;;;;5006226;28;20243;-76
2022/10/12 09:05:15;;;;;;;15.38;9.43;;;17.50;99.90;;;;;;5001485;28;20644;-76
2022/10/12 09:07:55;;;;;;;12.02;9.80;;;17.70;99.90;;;;;;5005150;28;20173;-76
2022/10/12 09:10:43;;;;;;;13.18;8.75;;;18.10;99.90;;;;;;5007727;28;20240;-76
2022/10/12 09:13:12;;;;;;;9.77;8.77;;;19.40;99.90;;;;;;5013095;28;20205;-76
2022/10/12 09:15:52;;;;;;;9.90;8.88;;;21.40;99.90;;;;;;5013886;28;20181;-76
2022/10/12 09:18:21;;;;;;;11.23;7.75;;;23.60;99.90;;;;;;5008404;28;20596;-77
2022/10/12 09:20:49;;;;;;;11.50;8.30;;;25.40;97.60;;;;;;5016912;28;20201;-78
2022/10/12 09:23:15;;;;;;;11.13;7.57;;;26.90;90.00;;;;;;5014591;28;20217;-77
2022/10/12 09:25:41;;;;;;;14.85;7.43;;;27.80;84.40;;;;;;5007601;28;20201;-77
2022/10/12 09:28:26;;;;;;;10.65;7.90;;;28.90;77.60;;;;;;5012878;28;20191;-73
2022/10/12 09:31:20;;;;;;;10.98;7.38;;;29.80;70.70;;;;;;5013299;28;20690;-74
2022/10/12 09:34:00;;;;;;;9.07;7.40;;;30.70;67.70;;;;;;5010708;28;20202;-74
2022/10/12 09:36:29;;;;;;;8.35;6.78;;;31.40;62.70;;;;;;5011681;28;20248;-72
2022/10/12 09:38:57;;;;;;;8.68;6.78;;;31.50;60.50;;;;;;5009894;28;20193;-73
2022/10/12 09:41:28;;;;;;;8.90;7.28;;;31.90;59.20;;;;;;5011423;28;20636;-73
2022/10/12 09:43:59;;;;;;;6.75;6.00;;;32.00;57.90;;;;;;5010251;28;20231;-73
2022/10/12 09:46:34;;;;;;;8.85;6.50;;;32.50;56.80;;;;;;5015227;28;20215;-77
2022/10/12 09:49:00;;;;;;;8.63;6.63;;;32.70;55.90;;;;;;5013536;28;20178;-76
2022/10/12 09:51:28;;;;;;;9.70;5.95;;;32.80;55.60;;;;;;5016243;28;20255;-76
2022/10/12 09:53:54;;;;;;;8.32;6.20;;;33.20;55.20;;;;;;5007839;28;20224;-77
2022/10/12 09:56:29;;;;;;;7.90;7.10;;;33.50;53.30;;;;;;5010568;28;20193;-77
2022/10/12 09:59:01;;;;;;;9.20;6.75;;;33.80;52.30;;;;;;5013975;28;20212;-73
2022/10/12 10:01:29;;;;;;;6.80;6.10;;;34.20;51.80;;;;;;5008542;28;20582;-74
2022/10/12 10:04:08;;;;;;;12.43;7.10;;;34.50;51.10;;;;;;5012548;28;20207;-72
2022/10/12 10:06:36;;;;;;;6.68;6.07;;;34.60;51.40;;;;;;5014126;28;20212;-72
2022/10/12 10:09:02;;;;;;;9.15;7.45;;;34.90;50.80;;;;;;5012165;28;20188;-72
2022/10/12 10:11:32;;;;;;;11.60;7.05;;;35.10;49.00;;;;;;5013501;28;20185;-73
2022/10/12 10:13:59;;;;;;;7.30;5.95;;;34.90;50.30;;;;;;5020393;28;20199;-72
2022/10/12 10:16:28;;;;;;;7.85;6.72;;;35.20;49.60;;;;;;5008154;28;20610;-72
2022/10/12 10:18:53;;;;;;;7.43;6.72;;;35.50;49.40;;;;;;5011885;28;20172;-72
2022/10/12 10:21:32;;;;;;;14.57;7.50;;;35.60;49.10;;;;;;5013217;28;20226;-70
2022/10/12 10:24:04;;;;;;;10.63;6.60;;;35.30;49.20;;;;;;5014058;28;20636;-72
2022/10/12 10:27:02;;;;;;;8.15;6.75;;;35.00;49.40;;;;;;5009987;28;20243;-72
2022/10/12 10:29:31;;;;;;;9.05;6.40;;;35.30;49.50;;;;;;5010383;28;20247;-72
2022/10/12 10:32:14;;;;;;;10.60;7.30;;;36.00;48.60;;;;;;5010655;28;20180;-74
2022/10/12 10:34:41;;;;;;;8.38;7.63;;;36.10;48.50;;;;;;5008925;28;20203;-73
2022/10/12 10:37:12;;;;;;;6.18;5.57;;;36.30;47.70;;;;;;5015735;28;20185;-73
2022/10/12 10:39:46;;;;;;;7.38;6.68;;;36.00;48.50;;;;;;5008489;28;20187;-73
2022/10/12 10:42:18;;;;;;;8.90;6.72;;;36.50;48.10;;;;;;5010785;28;20786;-72
2022/10/12 10:45:05;;;;;;;11.45;6.88;;;36.40;48.20;;;;;;5010675;28;20237;-72
2022/10/12 10:47:32;;;;;;;10.00;7.38;;;36.70;46.70;;;;;;5010382;28;20216;-73
2022/10/12 10:50:01;;;;;;;8.60;7.32;;;36.90;46.80;;;;;;5008887;28;20181;-73
2022/10/12 10:52:35;;;;;;;8.82;7.03;;;35.50;48.30;;;;;;5006041;28;20234;-73
2022/10/12 10:55:09;;;;;;;9.18;7.78;;;33.70;50.10;;;;;;5006956;28;20195;-75
2022/10/12 10:57:41;;;;;;;8.05;7.07;;;33.50;51.30;;;;;;5004985;28;20197;-72
2022/10/12 11:00:17;;;;;;;10.27;7.20;;;34.10;51.20;;;;;;5006045;28;20192;-74
2022/10/12 11:02:53;;;;;;;12.45;7.28;;;35.20;49.60;;;;;;5007848;28;20219;-73
2022/10/12 11:05:25;;;;;;;9.43;6.70;;;36.20;49.00;;;;;;5011495;28;21142;-73
2022/10/12 11:07:52;;;;;;;8.23;7.40;;;36.50;47.60;;;;;;5009407;28;20212;-73
2022/10/12 11:10:43;;;;;;;9.52;6.97;;;35.30;48.80;;;;;;5009596;28;20188;-73
2022/10/12 11:13:30;;;;;;;9.48;7.57;;;35.10;49.90;;;;;;5005729;28;20254;-73
2022/10/12 11:15:58;;;;;;;9.75;6.78;;;35.40;49.50;;;;;;5010986;28;20251;-73
2022/10/12 11:18:55;;;;;;;7.85;6.32;;;36.80;47.90;;;;;;5009255;28;20267;-73
2022/10/12 11:21:37;;;;;;;8.07;5.97;;;38.10;46.50;;;;;;5005442;28;20604;-73
2022/10/12 11:24:28;;;;;;;6.82;6.18;;;38.90;45.10;;;;;;5011266;28;20200;-74
2022/10/12 11:27:21;;;;;;;7.10;6.38;;;39.50;43.90;;;;;;5011575;28;20339;-75
2022/10/12 11:29:47;;;;;;;9.02;5.78;;;39.90;43.50;;;;;;4998928;28;20271;-74
2022/10/12 11:32:30;;;;;;;8.27;6.85;;;39.80;43.60;;;;;;5014652;28;20525;-74
2022/10/12 11:35:02;;;;;;;7.15;6.45;;;40.20;42.70;;;;;;5009579;28;20207;-74
2022/10/12 11:37:38;;;;;;;10.30;7.15;;;38.40;43.90;;;;;;5006196;28;20188;-75
2022/10/12 11:40:11;;;;;;;7.45;6.85;;;36.90;46.00;;;;;;5008474;28;21034;-74
2022/10/12 11:42:40;;;;;;;7.43;6.00;;;37.20;46.00;;;;;;5012254;28;20196;-74
2022/10/12 11:45:19;;;;;;;7.10;6.30;;;37.70;45.40;;;;;;5008124;28;20209;-74
2022/10/12 11:47:50;;;;;;;6.38;5.43;;;38.40;43.70;;;;;;5011478;28;20184;-74
2022/10/12 11:50:36;;;;;;;6.60;5.90;;;38.50;44.20;;;;;;5010853;28;20185;-74
2022/10/12 11:53:06;;;;;;;8.60;6.35;;;39.00;43.30;;;;;;5009117;28;20208;-74
2022/10/12 11:55:46;;;;;;;6.82;6.13;;;38.80;43.70;;;;;;5013019;28;20246;-74
2022/10/12 11:58:20;;;;;;;5.95;5.28;;;39.20;43.30;;;;;;5011038;28;20176;-74
2022/10/12 12:01:21;;;;;;;8.15;6.40;;;39.70;42.70;;;;;;5007479;28;20180;-74
2022/10/12 12:03:59;;;;;;;12.63;6.60;;;39.80;42.70;;;;;;4996276;28;20200;-74
2022/10/12 12:06:27;;;;;;;7.25;6.53;;;39.50;43.00;;;;;;5006104;28;20215;-74
2022/10/12 12:08:55;;;;;;;7.63;6.57;;;39.50;42.60;;;;;;5020596;28;20235;-74
2022/10/12 12:11:27;;;;;;;6.78;5.47;;;40.00;41.70;;;;;;5008555;28;20205;-73
2022/10/12 12:14:38;;;;;;;6.32;5.72;;;40.10;41.30;;;;;;5009332;28;20284;-73
2022/10/12 12:17:12;;;;;;;7.25;6.57;;;39.80;41.60;;;;;;4992116;28;20196;-72
2022/10/12 12:19:42;;;;;;;6.90;6.15;;;38.60;43.00;;;;;;5007033;28;20184;-73
2022/10/12 12:22:18;;;;;;;8.90;5.85;;;38.70;42.80;;;;;;5008350;28;20603;-73
2022/10/12 12:25:03;;;;;;;9.50;6.40;;;39.10;42.00;;;;;;5009386;28;20273;-73
2022/10/12 12:27:50;;;;;;;9.90;6.32;;;38.90;42.20;;;;;;5009226;28;20378;-73
2022/10/12 12:30:18;;;;;;;8.65;6.18;;;38.40;43.00;;;;;;5005483;28;20192;-73
2022/10/12 12:32:53;;;;;;;8.50;6.00;;;36.00;45.40;;;;;;5009880;28;20247;-73
2022/10/12 12:35:49;;;;;;;5.95;5.35;;;34.70;47.90;;;;;;5008466;28;20260;-74
2022/10/12 12:38:28;;;;;;;10.57;6.43;;;33.70;49.10;;;;;;5013177;28;20182;-73
2022/10/12 12:41:14;;;;;;;8.25;6.43;;;32.80;49.80;;;;;;5015949;28;20177;-76
2022/10/12 12:43:56;;;;;;;8.77;6.00;;;31.20;52.30;;;;;;5008531;28;20739;-74
2022/10/12 12:46:25;;;;;;;8.50;6.45;;;30.10;54.60;;;;;;5011578;28;20201;-73
2022/10/12 12:48:51;;;;;;;6.97;6.22;;;29.70;55.10;;;;;;5014587;28;20177;-74
2022/10/12 12:51:37;;;;;;;9.32;5.88;;;29.00;55.80;;;;;;5010334;28;20628;-73
2022/10/12 12:54:15;;;;;;;7.97;6.32;;;28.00;57.20;;;;;;5011076;28;20193;-73